createdAt,value
2018-07-03T00:02:12.116Z,1.67
2018-07-03T00:04:40.232Z,1.40
2018-07-03T00:07:08.324Z,1.20
2018-07-03T00:09:36.435Z,1.37
2018-07-03T00:12:04.532Z,1.93
2018-07-03T00:14:32.631Z,1.67
2018-07-03T00:17:06.175Z,1.30
2018-07-03T00:19:34.273Z,2.10
2018-07-03T00:22:02.361Z,1.80
2018-07-03T00:24:30.459Z,1.67
2018-07-03T00:26:58.584Z,1.50
2018-07-03T00:29:26.509Z,1.50
2018-07-03T00:31:54.591Z,1.50
2018-07-03T00:34:22.752Z,1.30
2018-07-03T00:36:50.827Z,1.73
2018-07-03T00:39:18.939Z,1.77
2018-07-03T00:41:47.019Z,1.53
2018-07-03T00:44:15.116Z,1.87
2018-07-03T00:46:43.222Z,1.70
2018-07-03T00:49:11.321Z,1.50
2018-07-03T00:51:39.546Z,1.23
2018-07-03T00:54:07.659Z,1.60
2018-07-03T00:56:35.795Z,1.90
2018-07-03T00:59:03.968Z,1.30
2018-07-03T01:01:32.129Z,1.17
2018-07-03T01:04:00.231Z,1.13
2018-07-03T01:06:28.652Z,1.50
2018-07-03T01:08:56.763Z,1.20
2018-07-03T01:11:24.880Z,1.40
2018-07-03T01:13:53.248Z,1.87
2018-07-03T01:16:21.383Z,1.00
2018-07-03T01:18:49.520Z,1.30
2018-07-03T01:21:17.640Z,1.50
2018-07-03T01:23:45.752Z,1.60
2018-07-03T01:26:13.992Z,1.60
2018-07-03T01:28:42.117Z,1.50
2018-07-03T01:31:10.725Z,1.37
2018-07-03T01:33:39.050Z,1.83
2018-07-03T01:36:07.213Z,1.70
2018-07-03T01:38:35.276Z,1.70
2018-07-03T01:41:03.400Z,1.50
2018-07-03T01:43:31.527Z,1.80
2018-07-03T01:45:59.640Z,1.60
2018-07-03T01:48:27.768Z,1.60
2018-07-03T01:50:55.880Z,2.00
2018-07-03T01:53:23.997Z,1.30
2018-07-03T01:55:52.216Z,1.40
2018-07-03T01:58:20.321Z,1.80
2018-07-03T02:00:48.428Z,1.50
2018-07-03T02:03:16.528Z,1.77
2018-07-03T02:05:44.666Z,1.20
2018-07-03T02:08:12.770Z,2.03
2018-07-03T02:10:40.887Z,1.43
2018-07-03T02:13:08.990Z,1.50
2018-07-03T02:15:37.098Z,1.33
2018-07-03T02:18:05.208Z,1.80
2018-07-03T02:20:33.311Z,1.30
2018-07-03T02:23:01.449Z,1.43
2018-07-03T02:25:29.573Z,1.33
2018-07-03T02:27:57.702Z,1.80
2018-07-03T02:30:25.828Z,1.60
2018-07-03T02:32:53.953Z,1.33
2018-07-03T02:35:22.094Z,1.73
2018-07-03T02:37:50.213Z,1.90
2018-07-03T02:40:18.345Z,1.77
2018-07-03T02:42:46.455Z,1.90
2018-07-03T02:45:14.577Z,1.43
2018-07-03T02:47:42.717Z,1.40
2018-07-03T02:50:10.832Z,1.70
2018-07-03T02:52:38.960Z,1.90
2018-07-03T02:55:07.076Z,1.83
2018-07-03T02:57:35.202Z,1.40
2018-07-03T03:00:04.357Z,1.80
2018-07-03T03:02:32.540Z,1.87
2018-07-03T03:05:00.697Z,1.50
2018-07-03T03:07:28.848Z,1.60
2018-07-03T03:09:56.965Z,2.10
2018-07-03T03:12:25.104Z,1.57
2018-07-03T03:14:53.233Z,1.90
2018-07-03T03:17:21.361Z,1.80
2018-07-03T03:19:49.481Z,1.47
2018-07-03T03:22:17.613Z,1.90
2018-07-03T03:24:45.735Z,1.60
2018-07-03T03:27:13.871Z,2.10
2018-07-03T03:29:41.984Z,1.70
2018-07-03T03:32:10.113Z,1.97
2018-07-03T03:34:38.231Z,2.10
2018-07-03T03:37:06.364Z,1.67
2018-07-03T03:39:34.520Z,2.33
2018-07-03T03:42:02.651Z,1.87
2018-07-03T03:44:30.776Z,1.73
2018-07-03T03:46:58.912Z,2.10
2018-07-03T03:49:27.054Z,1.80
2018-07-03T03:51:55.183Z,2.23
2018-07-03T03:54:23.336Z,1.93
2018-07-03T03:56:51.471Z,1.87
2018-07-03T03:59:19.604Z,1.80
2018-07-03T04:01:47.724Z,1.40
2018-07-03T04:04:15.884Z,1.97
2018-07-03T04:06:44.011Z,1.67
2018-07-03T04:09:12.207Z,1.70
2018-07-03T04:11:40.338Z,2.50
2018-07-03T04:14:08.456Z,2.00
2018-07-03T04:16:36.590Z,1.80
2018-07-03T04:19:04.754Z,1.50
2018-07-03T04:21:32.863Z,1.50
2018-07-03T04:24:01.001Z,1.77
2018-07-03T04:26:29.107Z,2.43
2018-07-03T04:28:57.220Z,1.83
2018-07-03T04:31:25.346Z,1.93
2018-07-03T04:33:53.475Z,1.60
2018-07-03T04:36:21.612Z,1.70
2018-07-03T04:38:49.744Z,1.93
2018-07-03T04:41:17.879Z,1.87
2018-07-03T04:43:45.992Z,1.70
2018-07-03T04:46:14.117Z,1.80
2018-07-03T04:48:42.277Z,1.87
2018-07-03T04:51:10.408Z,1.80
2018-07-03T04:53:38.543Z,2.00
2018-07-03T04:56:06.661Z,2.23
2018-07-03T04:58:34.795Z,1.60
2018-07-03T05:01:02.932Z,1.70
2018-07-03T05:03:31.116Z,1.87
2018-07-03T05:05:59.265Z,2.07
2018-07-03T05:08:27.396Z,1.53
2018-07-03T05:10:55.536Z,1.50
2018-07-03T05:13:23.667Z,1.60
2018-07-03T05:15:51.788Z,1.47
2018-07-03T05:18:19.908Z,2.07
2018-07-03T05:20:48.033Z,1.70
2018-07-03T05:23:16.172Z,2.27
2018-07-03T05:25:44.376Z,1.47
2018-07-03T05:28:12.497Z,1.70
2018-07-03T05:30:40.629Z,1.97
2018-07-03T05:33:08.740Z,1.50
2018-07-03T05:35:36.866Z,2.70
2018-07-03T05:38:05.104Z,1.50
2018-07-03T05:40:33.175Z,1.50
2018-07-03T05:43:01.373Z,3.10
2018-07-03T05:45:29.464Z,1.93
2018-07-03T05:47:57.573Z,1.57
2018-07-03T05:50:25.692Z,1.90
2018-07-03T05:52:53.844Z,1.80
2018-07-03T05:55:22.004Z,1.43
2018-07-03T05:57:50.132Z,1.53
2018-07-03T06:00:18.264Z,1.50
2018-07-03T06:02:46.407Z,2.03
2018-07-03T06:05:14.536Z,1.80
2018-07-03T06:07:42.671Z,2.87
2018-07-03T06:10:10.808Z,1.77
2018-07-03T06:12:39.155Z,2.00
2018-07-03T06:15:07.047Z,3.43
2018-07-03T06:17:35.152Z,2.10
2018-07-03T06:20:03.290Z,1.63
2018-07-03T06:22:31.408Z,1.67
2018-07-03T06:24:59.517Z,2.40
2018-07-03T06:27:27.646Z,2.03
2018-07-03T06:29:55.754Z,2.63
2018-07-03T06:32:23.879Z,2.80
2018-07-03T06:34:51.987Z,2.07
2018-07-03T06:37:20.178Z,2.10
2018-07-03T06:39:48.232Z,1.73
2018-07-03T06:42:16.440Z,1.50
2018-07-03T06:44:44.597Z,1.70
2018-07-03T06:47:12.652Z,1.80
2018-07-03T06:49:40.761Z,1.83
2018-07-03T06:52:08.960Z,1.50
2018-07-03T06:54:37.060Z,1.57
2018-07-03T06:57:05.176Z,1.70
2018-07-03T06:59:33.303Z,1.77
2018-07-03T07:02:01.472Z,1.03
2018-07-03T07:04:29.617Z,1.70
2018-07-03T07:06:57.737Z,1.00
2018-07-03T07:09:25.891Z,1.17
2018-07-03T07:11:53.957Z,1.23
2018-07-03T07:14:22.043Z,1.43
2018-07-03T07:16:50.165Z,1.40
2018-07-03T07:19:18.264Z,1.10
2018-07-03T07:21:46.409Z,1.37
2018-07-03T07:24:14.727Z,1.20
2018-07-03T07:26:42.831Z,1.10
2018-07-03T07:29:11.036Z,1.47
2018-07-03T07:31:39.147Z,1.20
2018-07-03T07:34:07.264Z,1.60
2018-07-03T07:36:35.371Z,1.20
2018-07-03T07:39:05.836Z,1.13
2018-07-03T07:41:33.948Z,1.80
2018-07-03T07:44:02.084Z,0.90
2018-07-03T07:46:30.193Z,0.87
2018-07-03T07:48:58.307Z,0.87
2018-07-03T07:51:26.416Z,0.90
2018-07-03T07:53:54.564Z,1.03
2018-07-03T07:56:22.708Z,1.00
2018-07-03T07:58:50.792Z,1.00
2018-07-03T08:01:18.923Z,1.17
2018-07-03T08:03:47.064Z,1.13
2018-07-03T08:06:15.157Z,0.70
2018-07-03T08:08:43.258Z,0.70
2018-07-03T08:11:11.356Z,0.90
2018-07-03T08:13:39.480Z,0.93
2018-07-03T08:16:07.568Z,1.23
2018-07-03T08:18:35.680Z,0.60
2018-07-03T08:21:03.777Z,0.90
2018-07-03T08:23:31.896Z,1.10
2018-07-03T08:25:59.990Z,1.10
2018-07-03T08:28:28.134Z,0.70
2018-07-03T08:30:56.258Z,0.80
2018-07-03T08:33:24.368Z,0.80
2018-07-03T08:35:52.482Z,1.30
2018-07-03T08:38:20.584Z,1.00
2018-07-03T08:40:48.684Z,1.00
2018-07-03T08:43:16.780Z,1.20
2018-07-03T08:45:44.940Z,0.90
2018-07-03T08:48:13.040Z,1.13
2018-07-03T08:50:41.267Z,0.93
2018-07-03T08:53:09.397Z,1.20
2018-07-03T08:55:37.508Z,1.00
2018-07-03T08:58:05.656Z,1.40
2018-07-03T09:00:33.763Z,0.60
2018-07-03T09:03:01.861Z,0.80
2018-07-03T09:05:30.017Z,0.90
2018-07-03T09:07:58.116Z,1.30
2018-07-03T09:10:26.284Z,0.90
2018-07-03T09:12:54.408Z,0.83
2018-07-03T09:15:22.520Z,1.03
2018-07-03T09:17:50.681Z,1.10
2018-07-03T09:20:18.801Z,0.97
2018-07-03T09:22:46.921Z,0.80
2018-07-03T09:25:15.052Z,0.90
2018-07-03T09:27:43.159Z,0.70
2018-07-03T09:30:11.314Z,0.90
2018-07-03T09:32:39.423Z,1.10
2018-07-03T09:35:07.572Z,1.00
2018-07-03T09:37:35.771Z,1.00
2018-07-03T09:40:03.936Z,0.97
2018-07-03T09:42:32.095Z,1.03
2018-07-03T09:45:00.222Z,0.90
2018-07-03T09:47:28.363Z,1.13
2018-07-03T09:49:56.561Z,1.00
2018-07-03T09:52:24.668Z,1.13
2018-07-03T09:54:52.856Z,1.00
2018-07-03T09:57:20.940Z,1.00
2018-07-03T09:59:49.161Z,0.87
2018-07-03T10:02:17.276Z,0.90
2018-07-03T10:04:45.445Z,0.80
2018-07-03T10:07:13.551Z,1.20
2018-07-03T10:09:41.681Z,0.90
2018-07-03T10:12:10.041Z,0.80
2018-07-03T10:14:38.136Z,1.07
2018-07-03T10:17:06.249Z,0.80
2018-07-03T10:19:34.396Z,0.87
2018-07-03T10:22:02.609Z,1.03
2018-07-03T10:24:30.721Z,0.80
2018-07-03T10:26:58.826Z,0.80
2018-07-03T10:29:26.948Z,0.97
2018-07-03T10:31:55.124Z,1.30
2018-07-03T10:34:23.227Z,1.27
2018-07-03T10:36:51.348Z,0.90
2018-07-03T10:39:19.485Z,0.97
2018-07-03T10:41:47.750Z,0.93
2018-07-03T10:44:15.851Z,0.83
2018-07-03T10:46:43.954Z,1.10
2018-07-03T10:49:12.056Z,1.00
2018-07-03T10:51:40.177Z,0.90
2018-07-03T10:54:08.297Z,0.87
2018-07-03T10:56:36.416Z,1.00
2018-07-03T10:59:04.511Z,0.73
2018-07-03T11:01:32.636Z,0.87
2018-07-03T11:04:00.752Z,0.93
2018-07-03T11:06:28.861Z,1.17
2018-07-03T11:08:56.983Z,1.00
2018-07-03T11:11:25.186Z,0.93
2018-07-03T11:13:53.318Z,1.10
2018-07-03T11:16:21.412Z,0.93
2018-07-03T11:18:49.520Z,0.70
2018-07-03T11:21:17.658Z,0.90
2018-07-03T11:23:45.773Z,0.90
2018-07-03T11:26:13.879Z,0.90
2018-07-03T11:28:41.983Z,0.87
2018-07-03T11:31:10.098Z,0.80
2018-07-03T11:33:38.209Z,1.10
2018-07-03T11:36:06.348Z,0.90
2018-07-03T11:38:34.448Z,0.60
2018-07-03T11:41:02.563Z,1.00
2018-07-03T11:43:30.717Z,0.60
2018-07-03T11:45:58.980Z,1.33
2018-07-03T11:48:27.093Z,1.20
2018-07-03T11:50:55.200Z,1.27
2018-07-03T11:53:23.305Z,1.20
2018-07-03T11:55:51.404Z,0.83
2018-07-03T11:58:19.518Z,0.90
2018-07-03T12:00:47.670Z,1.03
2018-07-03T12:03:15.788Z,1.17
2018-07-03T12:05:43.896Z,1.00
2018-07-03T12:08:12.009Z,0.90
2018-07-03T12:10:40.138Z,1.00
2018-07-03T12:13:08.309Z,0.60
2018-07-03T12:15:36.452Z,1.07
2018-07-03T12:18:04.569Z,0.80
2018-07-03T12:20:32.718Z,0.90
2018-07-03T12:23:00.854Z,1.53
2018-07-03T12:25:28.971Z,1.27
2018-07-03T12:27:57.108Z,1.00
2018-07-03T12:30:25.232Z,0.90
2018-07-03T12:32:53.391Z,0.93
2018-07-03T12:35:21.515Z,1.17
2018-07-03T12:37:49.637Z,0.87
2018-07-03T12:40:17.749Z,0.80
2018-07-03T12:42:45.881Z,1.10
2018-07-03T12:45:14.004Z,0.90
2018-07-03T12:47:42.144Z,0.87
2018-07-03T12:50:10.240Z,0.80
2018-07-03T12:52:38.372Z,1.23
2018-07-03T12:55:06.544Z,1.00
2018-07-03T12:57:34.719Z,1.00
2018-07-03T13:00:02.901Z,0.93
2018-07-03T13:02:31.040Z,0.80
2018-07-03T13:04:59.158Z,0.97
2018-07-03T13:07:27.285Z,0.60
2018-07-03T13:09:55.442Z,0.80
2018-07-03T13:12:23.684Z,1.17
2018-07-03T13:14:51.836Z,1.10
2018-07-03T13:17:19.968Z,1.00
2018-07-03T13:19:48.084Z,1.00
2018-07-03T13:22:16.199Z,0.90
2018-07-03T13:24:44.329Z,0.90
2018-07-03T13:27:12.467Z,1.20
2018-07-03T13:29:40.584Z,0.93
2018-07-03T13:32:08.762Z,1.30
2018-07-03T13:34:36.872Z,0.67
2018-07-03T13:37:05.027Z,0.90
2018-07-03T13:39:33.124Z,0.73
2018-07-03T13:42:01.337Z,0.80
2018-07-03T13:44:29.471Z,1.20
2018-07-03T13:46:57.595Z,1.00
2018-07-03T13:49:25.736Z,1.10
2018-07-03T13:51:53.847Z,0.90
2018-07-03T13:54:22.161Z,1.47
2018-07-03T13:56:50.256Z,1.00
2018-07-03T13:59:18.359Z,1.23
2018-07-03T14:01:46.474Z,0.83
2018-07-03T14:04:14.387Z,1.00
2018-07-03T14:06:42.502Z,1.10
2018-07-03T14:09:10.637Z,1.30
2018-07-03T14:11:38.824Z,0.90
2018-07-03T14:14:07.222Z,1.43
2018-07-03T14:16:35.329Z,1.10
2018-07-03T14:19:03.518Z,0.83
2018-07-03T14:21:31.631Z,1.10
2018-07-03T14:23:59.760Z,0.90
2018-07-03T14:26:27.936Z,1.10
2018-07-03T14:28:56.072Z,1.07
2018-07-03T14:31:24.180Z,1.10
2018-07-03T14:33:52.323Z,0.90
2018-07-03T14:36:20.454Z,1.37
2018-07-03T14:38:48.592Z,1.00
2018-07-03T14:41:16.709Z,0.90
2018-07-03T14:43:44.832Z,1.10
2018-07-03T14:46:12.955Z,1.00
2018-07-03T14:48:41.090Z,0.90
2018-07-03T14:51:09.264Z,1.20
2018-07-03T14:53:37.441Z,0.93
2018-07-03T14:56:05.573Z,1.00
2018-07-03T14:58:33.695Z,1.00
2018-07-03T15:01:01.813Z,1.17
2018-07-03T15:03:29.968Z,1.50
2018-07-03T15:05:58.085Z,1.33
2018-07-03T15:08:26.206Z,1.30
2018-07-03T15:10:54.332Z,0.93
2018-07-03T15:13:22.464Z,0.90
2018-07-03T15:15:50.572Z,1.20
2018-07-03T15:18:18.719Z,1.20
2018-07-03T15:20:46.829Z,1.13
2018-07-03T15:23:14.951Z,1.10
2018-07-03T15:25:43.077Z,1.20
2018-07-03T15:28:11.220Z,1.20
2018-07-03T15:30:39.333Z,1.00
2018-07-03T15:33:07.462Z,1.07
2018-07-03T15:35:35.629Z,0.90
2018-07-03T15:38:03.740Z,1.67
2018-07-03T15:40:31.965Z,1.10
2018-07-03T15:43:00.093Z,0.90
2018-07-03T15:45:28.245Z,1.00
2018-07-03T15:47:56.403Z,0.90
2018-07-03T15:50:24.539Z,1.17
2018-07-03T15:52:52.712Z,1.40
2018-07-03T15:55:20.850Z,1.00
2018-07-03T15:57:49.029Z,1.37
2018-07-03T16:00:17.156Z,1.20
2018-07-03T16:02:59.475Z,1.00
2018-07-03T16:05:39.062Z,1.90
2018-07-03T16:09:15.778Z,1.20
2018-07-03T16:11:43.994Z,1.23
2018-07-03T16:14:12.646Z,1.23
2018-07-03T16:16:40.924Z,1.07
2018-07-03T16:19:14.471Z,1.40
2018-07-03T16:21:42.605Z,1.20
2018-07-03T16:24:10.756Z,1.00
2018-07-03T16:26:39.245Z,1.10
2018-07-03T16:29:09.262Z,0.80
2018-07-03T16:31:37.440Z,0.87
2018-07-03T16:34:05.769Z,1.30
2018-07-03T16:36:33.905Z,1.03
2018-07-03T16:39:02.043Z,1.70
2018-07-03T16:41:30.151Z,1.20
2018-07-03T16:43:58.281Z,1.17
2018-07-03T16:46:26.394Z,1.20
2018-07-03T16:48:54.279Z,1.33
2018-07-03T16:51:22.391Z,0.80
2018-07-03T16:53:50.525Z,0.97
2018-07-03T16:56:18.676Z,1.47
2018-07-03T16:58:46.786Z,1.07
2018-07-03T17:01:14.904Z,1.13
2018-07-03T17:03:43.029Z,1.33
2018-07-03T17:06:11.165Z,1.37
2018-07-03T17:08:39.333Z,1.30
2018-07-03T17:11:07.460Z,1.47
2018-07-03T17:13:35.600Z,1.00
2018-07-03T17:16:03.685Z,1.23
2018-07-03T17:18:32.445Z,1.00
2018-07-03T17:21:00.592Z,1.07
2018-07-03T17:23:29.007Z,1.10
2018-07-03T17:25:57.292Z,1.13
2018-07-03T17:28:25.803Z,1.30
2018-07-03T17:30:53.893Z,1.63
2018-07-03T17:33:22.012Z,1.43
2018-07-03T17:35:50.124Z,1.27
2018-07-03T17:38:18.252Z,1.17
2018-07-03T17:40:57.788Z,1.67
2018-07-03T17:44:10.832Z,1.20
2018-07-03T17:46:38.982Z,2.73
2018-07-03T17:49:07.483Z,1.30
2018-07-03T17:51:45.276Z,1.40
2018-07-03T17:54:13.398Z,1.30
2018-07-03T17:56:41.514Z,1.50
2018-07-03T17:59:09.617Z,1.40
2018-07-03T18:01:37.740Z,1.30
2018-07-03T18:04:05.875Z,0.90
2018-07-03T18:06:33.990Z,1.70
2018-07-03T18:09:02.093Z,1.30
2018-07-03T18:11:30.254Z,1.10
2018-07-03T18:13:58.428Z,1.27
2018-07-03T18:16:28.904Z,1.27
2018-07-03T18:19:02.677Z,1.20
2018-07-03T18:21:30.797Z,1.30
2018-07-03T18:23:58.945Z,1.20
2018-07-03T18:26:27.070Z,1.23
2018-07-03T18:28:55.187Z,1.47
2018-07-03T18:31:23.374Z,1.23
2018-07-03T18:33:51.508Z,1.60
2018-07-03T18:36:19.656Z,1.30
2018-07-03T18:38:47.857Z,1.13
2018-07-03T18:41:15.996Z,1.50
2018-07-03T18:43:44.173Z,1.70
2018-07-03T18:46:12.325Z,1.57
2018-07-03T18:48:40.448Z,1.70
2018-07-03T18:51:08.635Z,1.40
2018-07-03T18:53:36.943Z,1.63
2018-07-03T18:56:05.367Z,1.50
2018-07-03T18:58:33.545Z,1.37
2018-07-03T19:01:01.680Z,1.17
2018-07-03T19:03:29.797Z,1.40
2018-07-03T19:05:57.904Z,1.40
2018-07-03T19:08:26.033Z,2.10
2018-07-03T19:10:54.169Z,1.30
2018-07-03T19:13:22.307Z,1.20
2018-07-03T19:15:50.428Z,1.10
2018-07-03T19:18:18.549Z,1.10
2018-07-03T19:20:46.700Z,1.33
2018-07-03T19:23:14.882Z,1.10
2018-07-03T19:25:43.017Z,2.00
2018-07-03T19:28:11.191Z,1.33
2018-07-03T19:30:39.300Z,1.60
2018-07-03T19:33:07.423Z,1.33
2018-07-03T19:35:35.561Z,1.00
2018-07-03T19:38:03.820Z,1.40
2018-07-03T19:40:31.888Z,1.50
2018-07-03T19:43:34.543Z,1.30
2018-07-03T19:46:03.130Z,1.40
2018-07-03T19:48:31.252Z,1.30
2018-07-03T19:50:59.397Z,1.40
2018-07-03T19:53:27.509Z,1.30
2018-07-03T19:55:56.947Z,1.20
2018-07-03T19:58:25.076Z,1.73
2018-07-03T20:00:54.217Z,1.83
2018-07-03T20:03:22.391Z,2.30
2018-07-03T20:05:50.511Z,1.33
2018-07-03T20:08:18.635Z,1.23
2018-07-03T20:10:46.736Z,1.63
2018-07-03T20:13:16.041Z,1.90
2018-07-03T20:15:44.129Z,1.50
2018-07-03T20:18:12.889Z,1.43
2018-07-03T20:20:40.979Z,1.53
2018-07-03T20:23:09.096Z,2.07
2018-07-03T20:25:37.916Z,1.67
2018-07-03T20:28:06.200Z,1.40
2018-07-03T20:30:34.300Z,1.57
2018-07-03T20:33:02.396Z,1.57
2018-07-03T20:35:30.493Z,1.40
2018-07-03T20:38:00.752Z,1.50
2018-07-03T20:40:35.100Z,1.60
2018-07-03T20:43:03.195Z,1.40
2018-07-03T20:45:31.288Z,1.43
2018-07-03T20:47:59.400Z,1.40
2018-07-03T20:50:27.501Z,1.67
2018-07-03T20:52:55.623Z,1.40
2018-07-03T20:55:23.728Z,2.30
2018-07-03T21:00:45.408Z,1.50
2018-07-03T21:03:13.589Z,1.67
2018-07-03T21:05:41.779Z,1.50
2018-07-03T21:08:09.852Z,1.80
2018-07-03T21:10:37.982Z,1.80
2018-07-03T21:13:06.076Z,1.20
2018-07-03T21:15:34.212Z,2.03
2018-07-03T21:18:02.390Z,1.67
2018-07-03T21:20:30.500Z,2.07
2018-07-03T21:22:58.609Z,1.47
2018-07-03T21:25:26.727Z,1.70
2018-07-03T21:27:54.849Z,1.73
2018-07-03T21:30:23.008Z,2.00
2018-07-03T21:32:51.148Z,1.70
2018-07-03T21:35:19.276Z,1.73
2018-07-03T21:37:47.381Z,1.80
2018-07-03T21:40:15.315Z,2.00
2018-07-03T21:42:43.437Z,1.60
2018-07-03T21:45:11.571Z,1.80
2018-07-03T21:47:39.793Z,1.70
2018-07-03T21:50:07.902Z,1.77
2018-07-03T21:52:36.024Z,2.23
2018-07-03T21:55:04.145Z,2.10
2018-07-03T21:57:32.265Z,1.67
2018-07-03T22:00:00.437Z,1.60
2018-07-03T22:02:28.556Z,2.00
2018-07-03T22:04:56.689Z,1.70
2018-07-03T22:07:24.804Z,2.03
2018-07-03T22:09:52.933Z,2.00
2018-07-03T22:12:21.059Z,1.83
2018-07-03T22:14:49.177Z,1.80
2018-07-03T22:17:17.291Z,1.93
2018-07-03T22:19:45.408Z,2.30
2018-07-03T22:22:13.536Z,2.03
2018-07-03T22:24:41.694Z,2.37
2018-07-03T22:27:09.838Z,1.70
2018-07-03T22:29:38.057Z,1.97
2018-07-03T22:32:06.172Z,1.70
2018-07-03T22:34:34.364Z,1.87
2018-07-03T22:37:02.501Z,2.20
2018-07-03T22:39:30.738Z,2.03
2018-07-03T22:41:58.859Z,1.80
2018-07-03T22:44:26.979Z,1.73
2018-07-03T22:46:55.089Z,2.27
2018-07-03T22:49:23.204Z,2.00
2018-07-03T22:51:51.319Z,1.83
2018-07-03T22:54:19.444Z,2.10
2018-07-03T22:56:47.572Z,2.20
2018-07-03T22:59:15.712Z,2.30
2018-07-03T23:01:43.832Z,2.43
2018-07-03T23:04:12.185Z,2.20
2018-07-03T23:06:40.293Z,2.20
2018-07-03T23:12:05.280Z,2.17
2018-07-03T23:14:33.396Z,2.63
2018-07-03T23:17:01.502Z,2.03
2018-07-03T23:19:29.617Z,2.13
2018-07-03T23:21:57.728Z,2.17
2018-07-03T23:24:25.863Z,1.97
2018-07-03T23:26:53.980Z,2.07
2018-07-03T23:29:23.700Z,2.60
2018-07-03T23:31:51.801Z,2.00
2018-07-03T23:34:19.897Z,1.90
2018-07-03T23:36:48.008Z,1.83
2018-07-03T23:39:16.167Z,2.30
2018-07-03T23:41:44.275Z,2.00
2018-07-03T23:44:12.369Z,2.33
2018-07-03T23:46:52.036Z,2.10
2018-07-03T23:49:31.620Z,2.13
2018-07-03T23:52:11.264Z,2.13
2018-07-03T23:54:50.869Z,2.30
2018-07-03T23:57:30.605Z,2.47
